createdAt,value
2023-04-25T00:02:21.364Z,25.60
2023-04-25T00:05:26.263Z,25.37
2023-04-25T00:08:32.274Z,25.07
2023-04-25T00:11:37.025Z,25.51
2023-04-25T00:14:42.216Z,24.55
2023-04-25T00:17:47.473Z,24.73
2023-04-25T00:20:51.464Z,25.08
2023-04-25T00:23:55.397Z,24.45
2023-04-25T00:26:59.292Z,24.53
2023-04-25T00:30:04.501Z,24.58
2023-04-25T00:33:11.372Z,24.27
2023-04-25T00:36:16.710Z,24.41
2023-04-25T00:39:21.354Z,24.01
2023-04-25T00:42:27.248Z,23.61
2023-04-25T00:45:32.160Z,23.16
2023-04-25T00:48:36.714Z,22.29
2023-04-25T00:51:41.046Z,21.45
2023-04-25T00:54:45.153Z,21.18
2023-04-25T00:57:49.819Z,21.79
2023-04-25T01:00:55.007Z,22.15
2023-04-25T01:04:01.390Z,21.35
2023-04-25T01:07:06.032Z,20.86
2023-04-25T01:10:11.687Z,20.69
2023-04-25T01:13:16.635Z,20.89
2023-04-25T01:16:22.145Z,20.77
2023-04-25T01:19:27.711Z,20.61
2023-04-25T01:22:32.551Z,19.99
2023-04-25T01:25:37.061Z,19.66
2023-04-25T01:28:43.231Z,20.36
2023-04-25T01:31:49.308Z,20.22
2023-04-25T01:34:54.319Z,20.18
2023-04-25T01:37:58.318Z,20.07
2023-04-25T01:41:02.363Z,20.22
2023-04-25T01:44:07.403Z,19.46
2023-04-25T01:47:11.892Z,19.99
2023-04-25T01:50:16.852Z,20.08
2023-04-25T01:53:21.306Z,21.05
2023-04-25T01:56:25.702Z,20.70
2023-04-25T01:59:32.233Z,21.28
2023-04-25T02:03:10.373Z,21.25
2023-04-25T02:06:14.479Z,19.48
2023-04-25T02:09:21.983Z,20.10
2023-04-25T02:12:30.573Z,20.02
2023-04-25T02:15:40.597Z,19.48
2023-04-25T02:18:56.233Z,19.28
2023-04-25T02:22:00.626Z,19.05
2023-04-25T02:25:06.491Z,18.70
2023-04-25T02:28:12.218Z,18.49
2023-04-25T02:31:16.706Z,18.45
2023-04-25T02:34:20.819Z,18.29
2023-04-25T02:37:25.212Z,17.01
2023-04-25T02:40:29.738Z,17.23
2023-04-25T02:43:34.448Z,16.99
2023-04-25T02:46:39.928Z,16.51
2023-04-25T02:49:44.077Z,16.12
2023-04-25T02:52:48.398Z,16.00
2023-04-25T02:56:01.786Z,16.05
2023-04-25T02:59:06.349Z,16.04
2023-04-25T03:02:10.740Z,16.20
2023-04-25T03:05:14.783Z,16.03
2023-04-25T03:08:20.193Z,16.41
2023-04-25T03:11:24.599Z,16.89
2023-04-25T03:14:28.833Z,16.68
2023-04-25T03:17:33.367Z,16.17
2023-04-25T03:20:38.214Z,16.32
2023-04-25T03:23:42.268Z,16.75
2023-04-25T03:26:46.169Z,16.51
2023-04-25T03:29:50.714Z,16.10
2023-04-25T03:32:55.736Z,15.79
2023-04-25T03:36:00.182Z,15.92
2023-04-25T03:39:06.317Z,16.11
2023-04-25T03:42:11.818Z,16.07
2023-04-25T03:45:15.771Z,16.30
2023-04-25T03:48:19.800Z,15.60
2023-04-25T03:51:24.725Z,16.12
2023-04-25T03:54:29.302Z,16.08
2023-04-25T03:57:40.554Z,16.18
2023-04-25T04:00:44.537Z,15.97
2023-04-25T04:03:49.153Z,16.13
2023-04-25T04:06:54.414Z,16.06
2023-04-25T04:10:04.487Z,15.70
2023-04-25T04:13:13.352Z,16.09
2023-04-25T04:16:17.590Z,16.26
2023-04-25T04:19:22.683Z,16.01
2023-04-25T04:22:36.812Z,16.51
2023-04-25T04:25:45.575Z,16.29
2023-04-25T04:29:22.688Z,16.31
2023-04-25T04:32:40.640Z,16.54
2023-04-25T04:35:44.803Z,16.32
2023-04-25T04:38:50.066Z,16.40
2023-04-25T04:42:03.821Z,16.57
2023-04-25T04:45:19.862Z,16.71
2023-04-25T04:48:58.147Z,16.41
2023-04-25T04:52:20.212Z,16.52
2023-04-25T04:55:59.788Z,16.45
2023-04-25T04:59:13.442Z,16.85
2023-04-25T05:02:25.187Z,16.98
2023-04-25T05:05:48.635Z,17.42
2023-04-25T05:09:09.090Z,17.66
2023-04-25T05:12:23.382Z,17.86
2023-04-25T05:15:50.168Z,18.14
2023-04-25T05:19:15.380Z,18.16
2023-04-25T05:22:30.189Z,18.35
2023-04-25T05:25:46.380Z,18.09
2023-04-25T05:29:09.838Z,18.13
2023-04-25T05:32:37.487Z,18.49
2023-04-25T05:35:42.364Z,18.82
2023-04-25T05:38:48.219Z,18.60
2023-04-25T05:41:52.290Z,18.35
2023-04-25T05:45:16.774Z,18.77
2023-04-25T05:48:50.665Z,18.86
2023-04-25T05:52:17.909Z,18.64
2023-04-25T05:55:29.660Z,18.07
2023-04-25T05:58:36.022Z,17.63
2023-04-25T06:01:42.160Z,16.99
2023-04-25T06:04:46.961Z,16.61
2023-04-25T06:07:51.023Z,17.05
2023-04-25T06:10:56.015Z,17.31
2023-04-25T06:14:00.956Z,17.45
2023-04-25T06:17:10.303Z,17.95
2023-04-25T06:20:14.722Z,18.14
2023-04-25T06:23:18.765Z,18.29
2023-04-25T06:26:30.014Z,18.35
2023-04-25T06:29:35.015Z,18.87
2023-04-25T06:32:39.434Z,19.37
2023-04-25T06:35:43.974Z,19.63
2023-04-25T06:38:51.035Z,19.86
2023-04-25T06:41:55.556Z,20.36
2023-04-25T06:45:17.902Z,20.64
2023-04-25T06:48:22.404Z,20.92
2023-04-25T06:51:31.624Z,21.06
2023-04-25T06:54:35.604Z,21.66
2023-04-25T06:57:51.268Z,22.27
2023-04-25T07:01:24.477Z,23.09
2023-04-25T07:04:29.132Z,23.59
2023-04-25T07:07:35.362Z,23.89
2023-04-25T07:10:40.132Z,23.83
2023-04-25T07:13:44.138Z,24.54
2023-04-25T07:16:48.643Z,24.27
2023-04-25T07:19:53.309Z,24.38
2023-04-25T07:22:57.986Z,24.64
2023-04-25T07:26:02.918Z,24.78
2023-04-25T07:29:08.104Z,25.28
2023-04-25T07:32:14.082Z,25.88
2023-04-25T07:35:20.590Z,26.36
2023-04-25T07:38:25.664Z,26.83
2023-04-25T07:41:29.927Z,27.25
2023-04-25T07:44:36.410Z,27.52
2023-04-25T07:47:41.302Z,27.70
2023-04-25T07:50:47.141Z,29.56
2023-04-25T07:53:52.591Z,31.49
2023-04-25T07:56:58.873Z,31.73
2023-04-25T08:00:11.211Z,32.61
2023-04-25T08:03:21.200Z,33.32
2023-04-25T08:06:25.706Z,34.94
2023-04-25T08:09:44.802Z,33.89
2023-04-25T08:12:57.921Z,33.69
2023-04-25T08:16:02.466Z,33.93
2023-04-25T08:19:07.896Z,34.27
2023-04-25T08:22:12.868Z,34.59
2023-04-25T08:25:28.312Z,35.24
2023-04-25T08:28:32.950Z,35.33
2023-04-25T08:31:39.713Z,35.90
2023-04-25T08:34:45.989Z,36.43
2023-04-25T08:37:51.377Z,37.77
2023-04-25T08:40:57.171Z,38.54
2023-04-25T08:44:03.140Z,38.71
2023-04-25T08:47:08.599Z,39.61
2023-04-25T08:50:23.023Z,39.80
2023-04-25T08:53:30.855Z,39.94
2023-04-25T08:56:38.112Z,41.72
2023-04-25T08:59:47.183Z,42.71
2023-04-25T09:02:52.078Z,42.34
2023-04-25T09:05:58.194Z,42.89
2023-04-25T09:09:12.835Z,42.31
2023-04-25T09:12:20.847Z,41.26
2023-04-25T09:15:25.999Z,41.83
2023-04-25T09:18:48.638Z,41.68
2023-04-25T09:21:59.488Z,41.96
2023-04-25T09:25:12.784Z,41.64
2023-04-25T09:28:18.206Z,41.74
2023-04-25T09:31:26.507Z,42.17
2023-04-25T09:34:44.942Z,42.02
2023-04-25T09:37:50.531Z,41.39
2023-04-25T09:41:26.148Z,42.31
2023-04-25T09:44:33.411Z,42.07
2023-04-25T09:47:40.756Z,41.54
2023-04-25T09:50:47.268Z,41.96
2023-04-25T09:53:52.809Z,41.78
2023-04-25T09:57:24.941Z,42.79
2023-04-25T10:00:32.644Z,42.75
2023-04-25T10:03:52.530Z,42.96
2023-04-25T10:07:17.301Z,43.49
2023-04-25T10:10:27.449Z,43.55
2023-04-25T10:13:32.957Z,43.24
2023-04-25T10:16:38.487Z,43.99
2023-04-25T10:19:42.975Z,43.70
2023-04-25T10:22:50.139Z,43.88
2023-04-25T10:25:54.900Z,43.95
2023-04-25T10:29:04.971Z,44.40
2023-04-25T10:32:10.382Z,44.95
2023-04-25T10:35:19.731Z,44.58
2023-04-25T10:38:25.267Z,44.65
2023-04-25T10:41:31.388Z,45.84
2023-04-25T10:44:37.230Z,45.51
2023-04-25T10:47:46.910Z,45.23
2023-04-25T10:50:53.324Z,45.33
2023-04-25T10:53:56.874Z,45.82
2023-04-25T10:57:02.007Z,45.07
2023-04-25T11:00:11.496Z,45.65
2023-04-25T11:03:24.004Z,45.28
2023-04-25T11:06:44.866Z,46.14
2023-04-25T11:09:49.847Z,45.83
2023-04-25T11:13:05.069Z,46.01
2023-04-25T11:16:13.154Z,45.87
2023-04-25T11:19:17.891Z,45.39
2023-04-25T11:22:23.784Z,46.12
2023-04-25T11:25:28.956Z,45.39
2023-04-25T11:28:33.080Z,45.68
2023-04-25T11:31:37.670Z,46.06
2023-04-25T11:34:47.113Z,45.69
2023-04-25T11:37:52.156Z,45.45
2023-04-25T11:40:57.386Z,46.19
2023-04-25T11:44:01.950Z,46.42
2023-04-25T11:47:06.370Z,45.75
2023-04-25T11:50:11.646Z,46.76
2023-04-25T11:53:16.570Z,47.83
2023-04-25T11:56:22.562Z,47.00
2023-04-25T11:59:28.449Z,47.91
2023-04-25T12:02:33.576Z,48.25
2023-04-25T12:05:39.646Z,47.94
2023-04-25T12:09:10.909Z,48.23
2023-04-25T12:12:15.318Z,47.84
2023-04-25T12:15:26.990Z,48.63
2023-04-25T12:18:32.215Z,48.33
2023-04-25T12:21:41.219Z,48.15
2023-04-25T12:24:56.266Z,48.18
2023-04-25T12:28:29.133Z,49.56
2023-04-25T12:31:34.865Z,49.30
2023-04-25T12:34:40.556Z,49.11
2023-04-25T12:37:45.234Z,49.34
2023-04-25T12:40:49.783Z,50.32
2023-04-25T12:43:54.376Z,50.68
2023-04-25T12:46:58.822Z,50.35
2023-04-25T12:50:03.579Z,50.42
2023-04-25T12:53:08.242Z,51.34
2023-04-25T12:56:13.059Z,50.73
2023-04-25T12:59:17.716Z,52.22
2023-04-25T13:02:22.553Z,52.75
2023-04-25T13:05:28.139Z,52.20
2023-04-25T13:08:32.531Z,52.85
2023-04-25T13:11:37.408Z,52.16
2023-04-25T13:14:41.527Z,52.10
2023-04-25T13:17:45.553Z,52.98
2023-04-25T13:20:49.936Z,52.50
2023-04-25T13:23:55.334Z,52.68
2023-04-25T13:27:00.279Z,52.71
2023-04-25T13:30:11.258Z,53.92
2023-04-25T13:33:16.690Z,53.02
2023-04-25T13:36:21.191Z,53.19
2023-04-25T13:39:26.711Z,53.69
2023-04-25T13:42:31.175Z,53.88
2023-04-25T13:45:35.740Z,53.63
2023-04-25T13:48:40.457Z,53.78
2023-04-25T13:51:44.392Z,54.85
2023-04-25T13:54:49.219Z,54.72
2023-04-25T13:57:53.809Z,56.48
2023-04-25T14:00:58.353Z,55.42
2023-04-25T14:04:02.981Z,55.47
2023-04-25T14:07:06.992Z,56.64
2023-04-25T14:10:12.023Z,56.33
2023-04-25T14:13:16.887Z,56.51
2023-04-25T14:16:21.830Z,56.21
2023-04-25T14:19:26.850Z,56.59
2023-04-25T14:22:31.429Z,56.16
2023-04-25T14:25:36.017Z,56.12
2023-04-25T14:28:41.037Z,56.43
2023-04-25T14:31:46.959Z,56.44
2023-04-25T14:34:51.466Z,56.20
2023-04-25T14:37:57.166Z,56.22
2023-04-25T14:41:01.539Z,57.58
2023-04-25T14:44:05.960Z,57.05
2023-04-25T14:47:10.759Z,57.05
2023-04-25T14:50:17.328Z,59.11
2023-04-25T14:53:21.781Z,57.64
2023-04-25T14:56:26.519Z,57.96
2023-04-25T14:59:31.392Z,58.26
2023-04-25T15:02:36.561Z,57.93
2023-04-25T15:05:42.488Z,58.60
2023-04-25T15:08:47.567Z,60.55
2023-04-25T15:11:53.331Z,61.53
2023-04-25T15:14:57.663Z,63.84
2023-04-25T15:18:02.789Z,66.40
2023-04-25T15:21:07.508Z,65.20
2023-04-25T15:24:11.634Z,66.33
2023-04-25T15:27:15.806Z,67.81
2023-04-25T15:30:21.390Z,68.64
2023-04-25T15:33:25.588Z,75.82
2023-04-25T15:36:30.084Z,71.21
2023-04-25T15:39:46.554Z,70.52
2023-04-25T15:42:56.049Z,72.04
2023-04-25T15:46:00.148Z,75.66
2023-04-25T15:49:04.649Z,75.34
2023-04-25T15:52:09.402Z,74.65
2023-04-25T15:55:14.564Z,75.15
2023-04-25T15:58:19.134Z,74.99
2023-04-25T16:01:25.378Z,76.06
2023-04-25T16:04:36.144Z,74.82
2023-04-25T16:07:41.927Z,73.36
2023-04-25T16:10:46.015Z,78.20
2023-04-25T16:13:50.988Z,78.03
2023-04-25T16:16:55.701Z,76.49
2023-04-25T16:20:02.642Z,75.90
2023-04-25T16:23:06.776Z,78.21
2023-04-25T16:26:11.194Z,79.29
2023-04-25T16:29:18.652Z,78.54
2023-04-25T16:32:23.072Z,77.76
2023-04-25T16:35:31.213Z,77.64
2023-04-25T16:38:35.936Z,77.52
2023-04-25T16:41:40.409Z,79.06
2023-04-25T16:44:45.786Z,79.45
2023-04-25T16:47:50.424Z,78.48
2023-04-25T16:50:55.599Z,79.30
2023-04-25T16:54:03.014Z,81.16
2023-04-25T16:57:11.369Z,80.47
2023-04-25T17:00:16.907Z,79.71
2023-04-25T17:03:21.966Z,80.91
2023-04-25T17:06:26.726Z,81.08
2023-04-25T17:09:31.496Z,80.09
2023-04-25T17:12:36.165Z,81.17
2023-04-25T17:15:40.944Z,80.30
2023-04-25T17:18:45.458Z,79.19
2023-04-25T17:21:49.707Z,79.42
2023-04-25T17:24:54.937Z,78.59
2023-04-25T17:28:00.582Z,79.00
2023-04-25T17:31:05.136Z,77.95
2023-04-25T17:34:10.673Z,78.00
2023-04-25T17:37:17.255Z,77.32
2023-04-25T17:40:22.181Z,78.77
2023-04-25T17:43:28.516Z,77.95
2023-04-25T17:46:33.110Z,76.78
2023-04-25T17:49:37.673Z,81.49
2023-04-25T17:52:42.701Z,80.37
2023-04-25T17:55:47.417Z,80.68
2023-04-25T17:58:52.831Z,81.88
2023-04-25T18:01:59.234Z,82.53
2023-04-25T18:05:09.964Z,82.34
2023-04-25T18:08:15.414Z,81.90
2023-04-25T18:11:20.086Z,82.86
2023-04-25T18:14:25.691Z,82.17
2023-04-25T18:17:30.270Z,81.57
2023-04-25T18:20:34.586Z,81.86
2023-04-25T18:23:39.559Z,81.98
2023-04-25T18:26:44.207Z,82.43
2023-04-25T18:29:48.467Z,80.71
2023-04-25T18:32:53.009Z,79.99
2023-04-25T18:35:59.895Z,82.91
2023-04-25T18:39:21.428Z,83.58
2023-04-25T18:42:27.048Z,82.34
2023-04-25T18:45:31.486Z,82.96
2023-04-25T18:48:35.967Z,83.61
2023-04-25T18:51:40.312Z,84.39
2023-04-25T18:54:45.577Z,83.17
2023-04-25T18:57:50.400Z,81.97
2023-04-25T19:00:55.157Z,80.28
2023-04-25T19:04:00.153Z,79.81
2023-04-25T19:07:05.024Z,80.99
2023-04-25T19:10:10.013Z,79.36
2023-04-25T19:13:15.116Z,80.82
2023-04-25T19:16:20.447Z,80.18
2023-04-25T19:19:24.656Z,79.64
2023-04-25T19:22:29.944Z,80.56
2023-04-25T19:25:35.643Z,80.28
2023-04-25T19:28:39.755Z,82.61
2023-04-25T19:31:46.328Z,81.29
2023-04-25T19:34:51.182Z,81.54
2023-04-25T19:37:55.603Z,81.66
2023-04-25T19:41:00.273Z,81.34
2023-04-25T19:44:07.754Z,83.32
2023-04-25T19:47:12.183Z,82.87
2023-04-25T19:50:17.100Z,82.18
2023-04-25T19:53:21.920Z,81.39
2023-04-25T19:56:27.344Z,81.61
2023-04-25T19:59:31.408Z,82.14
2023-04-25T20:02:37.781Z,81.26
2023-04-25T20:05:42.564Z,79.29
2023-04-25T20:08:48.216Z,77.83
2023-04-25T20:11:53.061Z,77.65
2023-04-25T20:14:57.618Z,76.88
2023-04-25T20:18:02.311Z,75.66
2023-04-25T20:21:08.570Z,75.98
2023-04-25T20:24:12.941Z,76.96
2023-04-25T20:27:17.421Z,78.75
2023-04-25T20:30:22.264Z,77.37
2023-04-25T20:33:26.985Z,77.98
2023-04-25T20:36:32.981Z,79.00
2023-04-25T20:39:37.327Z,79.86
2023-04-25T20:42:42.158Z,78.92
2023-04-25T20:45:46.615Z,77.88
2023-04-25T20:48:53.323Z,77.31
2023-04-25T20:52:23.569Z,78.69
2023-04-25T20:55:28.499Z,79.74
2023-04-25T20:58:33.247Z,79.44
2023-04-25T21:01:37.897Z,80.57
2023-04-25T21:04:45.703Z,80.66
2023-04-25T21:07:50.977Z,80.95
2023-04-25T21:10:56.013Z,80.79
2023-04-25T21:14:00.694Z,78.05
2023-04-25T21:17:05.668Z,77.99
2023-04-25T21:20:11.960Z,79.01
2023-04-25T21:23:17.694Z,77.64
2023-04-25T21:26:22.976Z,80.02
2023-04-25T21:29:27.456Z,80.74
2023-04-25T21:32:32.011Z,79.89
2023-04-25T21:35:36.741Z,79.61
2023-04-25T21:38:41.150Z,78.76
2023-04-25T21:41:45.836Z,77.71
2023-04-25T21:44:50.807Z,75.85
2023-04-25T21:47:55.827Z,76.66
2023-04-25T21:51:00.390Z,78.42
2023-04-25T21:54:06.584Z,77.39
2023-04-25T21:57:11.920Z,75.96
2023-04-25T22:00:25.323Z,75.39
2023-04-25T22:03:29.616Z,75.39
2023-04-25T22:06:34.408Z,76.35
2023-04-25T22:09:51.394Z,73.56
2023-04-25T22:12:59.860Z,71.89
2023-04-25T22:16:05.292Z,74.03
2023-04-25T22:19:10.498Z,72.81
2023-04-25T22:22:15.501Z,70.01
2023-04-25T22:25:20.396Z,70.83
2023-04-25T22:28:25.058Z,71.10
2023-04-25T22:31:29.887Z,71.93
2023-04-25T22:34:35.132Z,68.16
2023-04-25T22:37:40.099Z,69.51
2023-04-25T22:40:44.352Z,68.67
2023-04-25T22:43:48.286Z,68.85
2023-04-25T22:46:52.236Z,68.31
2023-04-25T22:49:58.635Z,67.78
2023-04-25T22:53:04.911Z,65.92
2023-04-25T22:56:10.952Z,65.55
2023-04-25T22:59:16.473Z,65.02
2023-04-25T23:02:21.123Z,64.36
2023-04-25T23:05:25.859Z,62.36
2023-04-25T23:08:30.324Z,63.42
2023-04-25T23:11:34.968Z,65.51
2023-04-25T23:14:39.359Z,64.66
2023-04-25T23:17:44.387Z,63.26
2023-04-25T23:20:49.003Z,62.26
2023-04-25T23:23:53.517Z,62.11
2023-04-25T23:26:58.057Z,63.55
2023-04-25T23:30:02.221Z,62.16
2023-04-25T23:33:08.479Z,59.13
2023-04-25T23:36:23.078Z,57.04
2023-04-25T23:39:28.571Z,59.93
2023-04-25T23:42:32.710Z,58.67
2023-04-25T23:45:37.298Z,57.96
2023-04-25T23:48:42.191Z,53.29
2023-04-25T23:51:47.209Z,50.03
2023-04-25T23:54:51.995Z,48.56
2023-04-25T23:57:56.437Z,46.91
